createdAt,value
2023-01-11T00:00:32.787Z,3.30
2023-01-11T00:03:18.972Z,3.30
2023-01-11T00:06:05.063Z,3.30
2023-01-11T00:08:50.803Z,3.30
2023-01-11T00:11:37.035Z,3.40
2023-01-11T00:14:23.572Z,3.40
2023-01-11T00:17:09.916Z,3.40
2023-01-11T00:19:55.970Z,3.40
2023-01-11T00:22:42.018Z,3.50
2023-01-11T00:25:27.875Z,3.50
2023-01-11T00:28:13.932Z,3.50
2023-01-11T00:31:00.618Z,3.60
2023-01-11T00:33:46.674Z,3.60
2023-01-11T00:36:32.622Z,3.60
2023-01-11T00:39:18.702Z,3.60
2023-01-11T00:42:23.689Z,3.60
2023-01-11T00:45:28.223Z,3.70
2023-01-11T00:48:13.900Z,3.80
2023-01-11T00:51:00.045Z,3.80
2023-01-11T00:53:48.463Z,3.80
2023-01-11T00:56:35.857Z,3.70
2023-01-11T00:59:21.586Z,3.70
2023-01-11T01:02:08.448Z,3.70
2023-01-11T01:04:55.166Z,3.60
2023-01-11T01:07:41.232Z,3.60
2023-01-11T01:10:27.419Z,3.70
2023-01-11T01:13:32.200Z,3.70
2023-01-11T01:16:18.914Z,3.70
2023-01-11T01:19:04.764Z,3.70
2023-01-11T01:21:50.939Z,3.60
2023-01-11T01:24:36.849Z,3.60
2023-01-11T01:27:22.623Z,3.60
2023-01-11T01:30:08.907Z,3.50
2023-01-11T01:32:55.019Z,3.50
2023-01-11T01:35:41.098Z,3.50
2023-01-11T01:38:27.677Z,3.50
2023-01-11T01:41:14.237Z,3.50
2023-01-11T01:44:01.696Z,3.50
2023-01-11T01:46:47.776Z,3.40
2023-01-11T01:49:33.879Z,3.30
2023-01-11T01:52:20.298Z,3.20
2023-01-11T01:55:09.661Z,3.20
2023-01-11T01:57:55.965Z,3.20
2023-01-11T02:00:43.421Z,3.20
2023-01-11T02:03:29.212Z,3.20
2023-01-11T02:06:15.315Z,3.30
2023-01-11T02:09:03.962Z,3.20
2023-01-11T02:11:50.218Z,3.10
2023-01-11T02:14:37.469Z,3.10
2023-01-11T02:17:24.485Z,3.10
2023-01-11T02:20:14.043Z,3.00
2023-01-11T02:23:03.076Z,3.00
2023-01-11T02:26:01.489Z,2.90
2023-01-11T02:28:50.681Z,2.90
2023-01-11T02:31:44.038Z,2.90
2023-01-11T02:34:35.304Z,2.90
2023-01-11T02:37:29.099Z,3.00
2023-01-11T02:40:38.090Z,3.00
2023-01-11T02:43:42.881Z,3.10
2023-01-11T02:46:28.653Z,3.10
2023-01-11T02:49:26.865Z,3.20
2023-01-11T02:52:17.405Z,3.30
2023-01-11T02:55:04.228Z,3.30
2023-01-11T02:57:51.510Z,3.30
2023-01-11T03:00:38.632Z,3.40
2023-01-11T03:03:27.707Z,3.40
2023-01-11T03:06:24.299Z,3.50
2023-01-11T03:09:28.921Z,3.50
2023-01-11T03:12:52.111Z,3.60
2023-01-11T03:15:47.368Z,3.60
2023-01-11T03:18:36.370Z,3.60
2023-01-11T03:21:25.388Z,3.70
2023-01-11T03:24:11.245Z,3.70
2023-01-11T03:27:06.395Z,3.70
2023-01-11T03:29:56.886Z,3.70
2023-01-11T03:32:47.835Z,3.80
2023-01-11T03:35:39.854Z,3.90
2023-01-11T03:38:51.896Z,3.90
2023-01-11T03:41:39.357Z,4.00
2023-01-11T03:44:27.066Z,4.00
2023-01-11T03:47:14.719Z,4.00
2023-01-11T03:50:08.852Z,4.10
2023-01-11T03:52:55.176Z,4.10
2023-01-11T03:55:42.208Z,4.10
2023-01-11T03:58:29.283Z,4.20
2023-01-11T04:01:15.451Z,4.30
2023-01-11T04:04:01.345Z,4.40
2023-01-11T04:06:47.397Z,4.40
2023-01-11T04:09:33.126Z,4.50
2023-01-11T04:12:19.157Z,4.50
2023-01-11T04:15:05.646Z,4.60
2023-01-11T04:17:52.015Z,4.60
2023-01-11T04:20:39.071Z,4.70
2023-01-11T04:23:25.039Z,4.70
2023-01-11T04:26:11.038Z,4.70
2023-01-11T04:28:57.211Z,4.70
2023-01-11T04:31:43.287Z,4.70
2023-01-11T04:34:29.191Z,4.80
2023-01-11T04:37:15.442Z,4.80
2023-01-11T04:40:01.377Z,4.90
2023-01-11T04:42:47.528Z,4.90
2023-01-11T04:45:33.565Z,4.90
2023-01-11T04:48:19.633Z,4.80
2023-01-11T04:51:09.130Z,4.80
2023-01-11T04:53:55.286Z,4.80
2023-01-11T04:56:41.267Z,4.90
2023-01-11T04:59:27.338Z,4.80
2023-01-11T05:02:14.183Z,4.90
2023-01-11T05:05:00.045Z,4.90
2023-01-11T05:07:48.086Z,4.90
2023-01-11T05:10:33.999Z,4.90
2023-01-11T05:13:20.371Z,4.90
2023-01-11T05:16:06.419Z,5.00
2023-01-11T05:18:56.546Z,5.00
2023-01-11T05:21:42.506Z,5.10
2023-01-11T05:24:28.264Z,5.10
2023-01-11T05:27:14.357Z,5.20
2023-01-11T05:30:00.355Z,5.30
2023-01-11T05:32:46.341Z,5.30
2023-01-11T05:35:32.321Z,5.40
2023-01-11T05:38:18.311Z,5.50
2023-01-11T05:41:05.513Z,5.50
2023-01-11T05:44:09.957Z,5.50
2023-01-11T05:46:55.686Z,5.40
2023-01-11T05:49:41.728Z,5.40
2023-01-11T05:52:27.707Z,5.40
2023-01-11T05:55:13.727Z,5.40
2023-01-11T05:57:59.760Z,5.40
2023-01-11T06:00:48.139Z,5.40
2023-01-11T06:03:34.182Z,5.40
2023-01-11T06:06:20.468Z,5.40
2023-01-11T06:09:06.255Z,5.50
2023-01-11T06:11:52.375Z,5.40
2023-01-11T06:14:38.412Z,5.40
2023-01-11T06:17:24.372Z,5.40
2023-01-11T06:20:11.028Z,5.40
2023-01-11T06:22:57.033Z,5.50
2023-01-11T06:25:45.240Z,5.60
2023-01-11T06:28:31.368Z,5.60
2023-01-11T06:31:18.247Z,5.60
2023-01-11T06:34:04.305Z,5.70
2023-01-11T06:36:50.401Z,5.60
2023-01-11T06:39:36.610Z,5.60
2023-01-11T06:42:22.660Z,5.70
2023-01-11T06:45:09.070Z,5.70
2023-01-11T06:47:54.775Z,5.60
2023-01-11T06:50:40.807Z,5.50
2023-01-11T06:53:28.780Z,5.50
2023-01-11T06:56:16.651Z,5.50
2023-01-11T06:59:02.357Z,5.50
2023-01-11T07:01:48.550Z,5.50
2023-01-11T07:04:34.439Z,5.50
2023-01-11T07:07:20.449Z,5.50
2023-01-11T07:10:09.047Z,5.60
2023-01-11T07:12:55.036Z,5.60
2023-01-11T07:15:41.002Z,5.60
2023-01-11T07:18:27.248Z,5.70
2023-01-11T07:21:13.294Z,5.70
2023-01-11T07:23:59.401Z,5.80
2023-01-11T07:26:45.697Z,5.80
2023-01-11T07:29:31.752Z,5.70
2023-01-11T07:32:17.847Z,5.80
2023-01-11T07:35:03.964Z,5.80
2023-01-11T07:37:49.771Z,5.90
2023-01-11T07:40:36.604Z,5.80
2023-01-11T07:43:23.740Z,5.90
2023-01-11T07:46:09.806Z,5.90
2023-01-11T07:48:55.745Z,6.00
2023-01-11T07:51:41.727Z,6.00
2023-01-11T07:54:27.747Z,6.10
2023-01-11T07:57:13.792Z,6.20
2023-01-11T07:59:59.652Z,6.20
2023-01-11T08:02:49.349Z,6.20
2023-01-11T08:05:35.520Z,6.30
2023-01-11T08:08:21.278Z,6.40
2023-01-11T08:11:26.253Z,6.40
2023-01-11T08:14:31.261Z,6.40
2023-01-11T08:17:17.163Z,6.40
2023-01-11T08:20:03.484Z,6.50
2023-01-11T08:22:49.776Z,6.50
2023-01-11T08:25:36.726Z,6.50
2023-01-11T08:28:22.823Z,6.60
2023-01-11T08:31:09.191Z,6.60
2023-01-11T08:33:55.484Z,6.70
2023-01-11T08:36:41.615Z,6.70
2023-01-11T08:39:30.812Z,6.70
2023-01-11T08:42:17.032Z,6.80
2023-01-11T08:45:02.921Z,6.80
2023-01-11T08:47:50.865Z,6.90
2023-01-11T08:50:38.331Z,7.00
2023-01-11T08:53:24.056Z,7.10
2023-01-11T08:56:10.163Z,7.20
2023-01-11T08:58:56.309Z,7.30
2023-01-11T09:01:42.272Z,7.40
2023-01-11T09:04:28.519Z,7.50
2023-01-11T09:07:14.645Z,7.60
2023-01-11T09:10:00.343Z,7.70
2023-01-11T09:12:46.499Z,7.80
2023-01-11T09:15:32.539Z,8.00
2023-01-11T09:18:18.432Z,8.20
2023-01-11T09:21:04.489Z,8.30
2023-01-11T09:23:50.443Z,8.40
2023-01-11T09:26:37.984Z,8.50
2023-01-11T09:29:24.063Z,8.50
2023-01-11T09:32:10.261Z,8.60
2023-01-11T09:34:58.030Z,8.60
2023-01-11T09:37:51.729Z,8.70
2023-01-11T09:40:46.098Z,8.70
2023-01-11T09:43:37.308Z,8.70
2023-01-11T09:46:24.439Z,8.70
2023-01-11T09:49:30.880Z,8.70
2023-01-11T09:52:26.183Z,8.80
2023-01-11T09:55:15.327Z,8.90
2023-01-11T09:58:02.934Z,9.00
2023-01-11T10:01:10.607Z,9.10
2023-01-11T10:04:33.007Z,9.10
2023-01-11T10:07:34.242Z,9.20
2023-01-11T10:18:21.109Z,9.70
2023-01-11T10:18:39.851Z,10.00
2023-01-11T10:20:40.899Z,10.20
2023-01-11T10:23:36.139Z,10.50
2023-01-11T10:26:32.448Z,10.50
2023-01-11T10:29:39.560Z,10.50
2023-01-11T10:32:45.944Z,10.50
2023-01-11T10:35:56.342Z,10.50
2023-01-11T10:39:11.913Z,10.60
2023-01-11T10:42:16.592Z,10.60
2023-01-11T10:45:12.504Z,10.70
2023-01-11T10:48:12.451Z,10.90
2023-01-11T10:50:58.209Z,11.10
2023-01-11T10:53:44.258Z,11.50
2023-01-11T10:56:42.544Z,12.20
2023-01-11T11:00:05.317Z,12.90
2023-01-11T11:03:00.521Z,13.80
2023-01-11T11:05:46.427Z,14.60
2023-01-11T11:08:52.804Z,15.00
2023-01-11T11:11:41.562Z,15.30
2023-01-11T11:14:33.827Z,15.50
2023-01-11T11:17:19.797Z,15.40
2023-01-11T11:20:12.396Z,15.30
2023-01-11T11:22:58.956Z,15.10
2023-01-11T11:25:48.116Z,14.90
2023-01-11T11:28:34.020Z,14.60
2023-01-11T11:31:19.872Z,14.20
2023-01-11T11:34:07.131Z,13.90
2023-01-11T11:36:53.595Z,13.40
2023-01-11T11:39:39.783Z,13.00
2023-01-11T11:42:25.974Z,12.70
2023-01-11T11:45:12.135Z,12.50
2023-01-11T11:48:02.477Z,12.50
2023-01-11T11:50:49.532Z,12.50
2023-01-11T11:53:35.499Z,12.50
2023-01-11T11:56:26.750Z,12.40
2023-01-11T11:59:17.873Z,12.30
2023-01-11T12:02:05.103Z,12.10
2023-01-11T12:04:53.342Z,12.00
2023-01-11T12:07:54.218Z,11.80
2023-01-11T12:10:46.693Z,11.70
2023-01-11T12:13:40.402Z,11.70
2023-01-11T12:16:29.822Z,11.70
2023-01-11T12:19:28.312Z,11.80
2023-01-11T12:22:19.402Z,11.90
2023-01-11T12:25:14.699Z,12.00
2023-01-11T12:28:30.263Z,12.00
2023-01-11T12:31:16.122Z,12.10
2023-01-11T12:34:08.421Z,12.10
2023-01-11T12:37:13.927Z,12.00
2023-01-11T12:40:18.929Z,12.00
2023-01-11T12:43:11.008Z,12.00
2023-01-11T12:46:00.079Z,11.90
2023-01-11T12:49:11.982Z,11.90
2023-01-11T12:52:16.938Z,11.80
2023-01-11T12:55:15.139Z,11.80
2023-01-11T12:58:12.660Z,11.80
2023-01-11T13:01:06.106Z,11.80
2023-01-11T13:03:52.036Z,11.80
2023-01-11T13:06:43.505Z,11.80
2023-01-11T13:09:29.447Z,11.70
2023-01-11T13:12:22.914Z,11.70
2023-01-11T13:15:28.156Z,11.70
2023-01-11T13:18:30.095Z,11.70
2023-01-11T13:21:33.851Z,11.70
2023-01-11T13:24:26.591Z,11.70
2023-01-11T13:27:15.582Z,11.60
2023-01-11T13:30:02.762Z,11.60
2023-01-11T13:32:55.062Z,11.50
2023-01-11T13:35:42.956Z,11.50
2023-01-11T13:38:35.143Z,11.50
2023-01-11T13:41:22.278Z,11.60
2023-01-11T13:44:08.249Z,11.60
2023-01-11T13:46:57.529Z,11.60
2023-01-11T13:49:56.221Z,11.60
2023-01-11T13:52:55.414Z,11.60
2023-01-11T13:55:44.043Z,11.50
2023-01-11T13:58:37.159Z,11.60
2023-01-11T14:01:42.249Z,11.50
2023-01-11T14:04:51.688Z,11.60
2023-01-11T14:08:00.698Z,11.60
2023-01-11T14:10:46.593Z,11.40
2023-01-11T14:13:51.144Z,11.10
2023-01-11T14:16:43.196Z,10.90
2023-01-11T14:19:41.566Z,10.80
2023-01-11T14:22:47.820Z,10.70
2023-01-11T14:25:46.236Z,10.60
2023-01-11T14:28:47.158Z,10.50
2023-01-11T14:31:57.556Z,10.20
2023-01-11T14:34:46.522Z,10.00
2023-01-11T14:37:38.635Z,9.80
2023-01-11T14:40:47.937Z,9.70
2023-01-11T14:43:37.137Z,9.60
2023-01-11T14:46:42.174Z,9.50
2023-01-11T14:49:28.242Z,9.40
2023-01-11T14:52:16.316Z,9.50
2023-01-11T14:55:04.525Z,9.50
2023-01-11T14:57:56.346Z,9.30
2023-01-11T15:00:42.630Z,9.30
2023-01-11T15:03:48.968Z,9.20
2023-01-11T15:06:56.121Z,9.10
2023-01-11T15:09:44.367Z,9.10
2023-01-11T15:12:34.959Z,9.10
2023-01-11T15:15:21.275Z,9.00
2023-01-11T15:18:17.854Z,8.90
2023-01-11T15:21:05.687Z,8.80
2023-01-11T15:23:56.825Z,8.80
2023-01-11T15:26:49.761Z,8.70
2023-01-11T15:29:39.124Z,8.70
2023-01-11T15:32:35.010Z,8.60
2023-01-11T15:35:40.133Z,8.60
2023-01-11T15:38:30.565Z,8.60
2023-01-11T15:41:37.034Z,8.60
2023-01-11T15:44:49.165Z,8.50
2023-01-11T15:47:50.375Z,8.50
2023-01-11T15:51:06.148Z,8.50
2023-01-11T15:54:23.590Z,8.50
2023-01-11T15:57:37.821Z,8.50
2023-01-11T16:00:50.145Z,8.50
2023-01-11T16:04:05.875Z,8.40
2023-01-11T16:06:54.251Z,8.40
2023-01-11T16:09:55.558Z,8.30
2023-01-11T16:12:47.654Z,8.30
2023-01-11T16:15:38.457Z,8.20
2023-01-11T16:18:29.197Z,8.30
2023-01-11T16:21:21.415Z,8.20
2023-01-11T16:24:08.506Z,8.20
2023-01-11T16:27:00.165Z,8.10
2023-01-11T16:29:49.018Z,8.10
2023-01-11T16:32:37.200Z,8.10
2023-01-11T16:35:24.707Z,8.00
2023-01-11T16:38:18.117Z,8.00
2023-01-11T16:41:07.066Z,8.00
2023-01-11T16:43:58.944Z,7.90
2023-01-11T16:47:03.526Z,7.90
2023-01-11T16:49:52.320Z,7.90
2023-01-11T16:52:44.357Z,7.90
2023-01-11T16:55:33.888Z,7.90
2023-01-11T16:58:29.977Z,7.90
2023-01-11T17:01:15.954Z,7.90
2023-01-11T17:04:04.944Z,7.90
2023-01-11T17:06:53.353Z,7.90
2023-01-11T17:09:39.762Z,7.90
2023-01-11T17:12:26.256Z,7.90
2023-01-11T17:15:21.460Z,7.90
2023-01-11T17:18:08.540Z,7.90
2023-01-11T17:20:54.366Z,7.90
2023-01-11T17:23:41.468Z,7.80
2023-01-11T17:26:29.411Z,7.80
2023-01-11T17:29:18.256Z,7.80
2023-01-11T17:32:05.800Z,7.80
2023-01-11T17:34:51.948Z,7.80
2023-01-11T17:37:39.060Z,7.80
2023-01-11T17:40:39.382Z,7.80
2023-01-11T17:43:44.703Z,7.80
2023-01-11T17:46:30.735Z,7.80
2023-01-11T17:49:22.008Z,7.80
2023-01-11T17:52:16.465Z,7.70
2023-01-11T17:55:11.622Z,7.80
2023-01-11T17:58:10.420Z,7.80
2023-01-11T18:01:08.646Z,7.80
2023-01-11T18:03:57.168Z,7.80
2023-01-11T18:06:45.143Z,7.70
2023-01-11T18:09:31.990Z,7.70
2023-01-11T18:12:18.384Z,7.70
2023-01-11T18:15:05.793Z,7.70
2023-01-11T18:17:57.145Z,7.70
2023-01-11T18:20:47.178Z,7.70
2023-01-11T18:23:33.389Z,7.60
2023-01-11T18:26:38.108Z,7.60
2023-01-11T18:29:36.014Z,7.60
2023-01-11T18:32:22.229Z,7.60
2023-01-11T18:35:18.404Z,7.60
2023-01-11T18:38:09.430Z,7.50
2023-01-11T18:40:56.555Z,7.60
2023-01-11T18:43:42.170Z,7.60
2023-01-11T18:46:28.351Z,7.50
2023-01-11T18:49:14.302Z,7.50
2023-01-11T18:52:00.293Z,7.50
2023-01-11T18:54:46.440Z,7.50
2023-01-11T18:57:32.067Z,7.50
2023-01-11T19:00:18.688Z,7.50
2023-01-11T19:03:05.027Z,7.50
2023-01-11T19:05:51.033Z,7.50
2023-01-11T19:08:37.157Z,7.50
2023-01-11T19:11:25.544Z,7.60
2023-01-11T19:14:11.367Z,7.50
2023-01-11T19:16:57.317Z,7.50
2023-01-11T19:19:43.410Z,7.50
2023-01-11T19:22:29.351Z,7.50
2023-01-11T19:25:15.493Z,7.50
2023-01-11T19:28:04.946Z,7.50
2023-01-11T19:30:50.802Z,7.50
2023-01-11T19:33:36.952Z,7.50
2023-01-11T19:36:22.759Z,7.50
2023-01-11T19:39:08.864Z,7.50
2023-01-11T19:41:57.668Z,7.50
2023-01-11T19:44:43.775Z,7.50
2023-01-11T19:47:29.597Z,7.50
2023-01-11T19:50:17.015Z,7.50
2023-01-11T19:53:03.119Z,7.60
2023-01-11T19:55:49.059Z,7.60
2023-01-11T19:58:38.247Z,7.60
2023-01-11T20:01:24.146Z,7.60
2023-01-11T20:04:11.907Z,7.60
2023-01-11T20:06:57.962Z,7.60
2023-01-11T20:09:44.073Z,7.60
2023-01-11T20:12:30.074Z,7.60
2023-01-11T20:15:16.155Z,7.60
2023-01-11T20:18:01.967Z,7.60
2023-01-11T20:20:56.103Z,7.50
2023-01-11T20:23:41.875Z,7.50
2023-01-11T20:26:30.505Z,7.50
2023-01-11T20:29:16.314Z,7.40
2023-01-11T20:32:24.782Z,7.40
2023-01-11T20:35:08.309Z,7.40
2023-01-11T20:37:54.545Z,7.40
2023-01-11T20:40:40.562Z,7.40
2023-01-11T20:43:26.454Z,7.50
2023-01-11T20:46:12.478Z,7.50
2023-01-11T20:48:58.879Z,7.50
2023-01-11T20:51:45.937Z,7.50
2023-01-11T20:54:31.946Z,7.50
2023-01-11T20:57:17.847Z,7.50
2023-01-11T21:00:04.388Z,7.50
2023-01-11T21:02:50.829Z,7.40
2023-01-11T21:05:37.189Z,7.50
2023-01-11T21:08:23.298Z,7.50
2023-01-11T21:11:11.158Z,7.50
2023-01-11T21:13:59.199Z,7.50
2023-01-11T21:16:44.855Z,7.60
2023-01-11T21:19:31.823Z,7.60
2023-01-11T21:22:17.783Z,7.50
2023-01-11T21:25:04.047Z,7.50
2023-01-11T21:27:49.897Z,7.40
2023-01-11T21:30:36.180Z,7.50
2023-01-11T21:33:22.545Z,7.50
2023-01-11T21:36:10.892Z,7.50
2023-01-11T21:38:57.594Z,7.40
2023-01-11T21:41:55.451Z,7.40
2023-01-11T21:44:41.389Z,7.30
2023-01-11T21:47:27.347Z,7.30
2023-01-11T21:50:13.459Z,7.30
2023-01-11T21:52:59.484Z,7.30
2023-01-11T21:55:45.627Z,7.40
2023-01-11T21:58:31.748Z,7.40
2023-01-11T22:01:19.500Z,7.40
2023-01-11T22:04:06.573Z,7.40
2023-01-11T22:06:54.874Z,7.40
2023-01-11T22:09:59.875Z,7.50
2023-01-11T22:12:49.997Z,7.50
2023-01-11T22:15:37.236Z,7.50
2023-01-11T22:18:23.354Z,7.60
2023-01-11T22:21:18.706Z,7.60
2023-01-11T22:24:06.299Z,7.60
2023-01-11T22:26:52.743Z,7.50
2023-01-11T22:29:39.243Z,7.50
2023-01-11T22:32:25.450Z,7.50
2023-01-11T22:35:11.388Z,7.50
2023-01-11T22:37:57.588Z,7.50
2023-01-11T22:40:43.524Z,7.50
2023-01-11T22:43:29.731Z,7.50
2023-01-11T22:46:17.191Z,7.40
2023-01-11T22:49:03.449Z,7.40
2023-01-11T22:51:49.485Z,7.40
2023-01-11T22:54:35.578Z,7.50
2023-01-11T22:57:21.920Z,7.40
2023-01-11T23:00:08.444Z,7.40
2023-01-11T23:02:56.084Z,7.40
2023-01-11T23:05:46.306Z,7.30
2023-01-11T23:08:34.918Z,7.40
2023-01-11T23:11:41.097Z,7.30
2023-01-11T23:14:29.606Z,7.30
2023-01-11T23:17:15.733Z,7.20
2023-01-11T23:20:01.721Z,7.10
2023-01-11T23:22:49.523Z,7.10
2023-01-11T23:25:35.322Z,7.00
2023-01-11T23:28:21.205Z,6.90
2023-01-11T23:31:09.861Z,6.90
2023-01-11T23:33:57.288Z,6.80
2023-01-11T23:36:43.415Z,6.80
2023-01-11T23:39:29.267Z,6.80
2023-01-11T23:42:27.517Z,6.80
2023-01-11T23:45:13.872Z,6.80
2023-01-11T23:47:59.697Z,6.70
2023-01-11T23:50:45.682Z,6.70
2023-01-11T23:53:31.619Z,6.70
2023-01-11T23:56:17.696Z,6.70
2023-01-11T23:59:04.171Z,6.60
